sensor_id;sensor_type;location;lat;lon;timestamp;temperature;humidity
9486;DHT22;4781;48.776;9.200;2022-08-11T00:00:11;19.30;66.50
9486;DHT22;4781;48.776;9.200;2022-08-11T00:02:49;19.30;66.50
9486;DHT22;4781;48.776;9.200;2022-08-11T00:05:19;19.30;66.00
9486;DHT22;4781;48.776;9.200;2022-08-11T00:07:54;19.30;65.90
9486;DHT22;4781;48.776;9.200;2022-08-11T00:10:23;19.50;65.50
9486;DHT22;4781;48.776;9.200;2022-08-11T00:13:04;19.50;65.70
9486;DHT22;4781;48.776;9.200;2022-08-11T00:15:38;19.60;65.10
9486;DHT22;4781;48.776;9.200;2022-08-11T00:18:09;19.70;65.20
9486;DHT22;4781;48.776;9.200;2022-08-11T00:20:41;19.70;64.80
9486;DHT22;4781;48.776;9.200;2022-08-11T00:23:18;19.80;64.50
9486;DHT22;4781;48.776;9.200;2022-08-11T00:25:48;19.90;64.20
9486;DHT22;4781;48.776;9.200;2022-08-11T00:28:30;20.00;64.00
9486;DHT22;4781;48.776;9.200;2022-08-11T00:31:03;20.00;64.00
9486;DHT22;4781;48.776;9.200;2022-08-11T00:33:41;20.00;64.10
9486;DHT22;4781;48.776;9.200;2022-08-11T00:36:14;20.00;64.40
9486;DHT22;4781;48.776;9.200;2022-08-11T00:38:45;20.00;64.40
9486;DHT22;4781;48.776;9.200;2022-08-11T00:41:38;19.90;64.60
9486;DHT22;4781;48.776;9.200;2022-08-11T00:50:46;20.00;64.60
9486;DHT22;4781;48.776;9.200;2022-08-11T00:53:52;20.00;64.80
9486;DHT22;4781;48.776;9.200;2022-08-11T00:57:02;20.00;65.10
9486;DHT22;4781;48.776;9.200;2022-08-11T01:02:44;20.10;65.10
9486;DHT22;4781;48.776;9.200;2022-08-11T01:08:29;20.10;65.30
9486;DHT22;4781;48.776;9.200;2022-08-11T01:17:03;20.00;65.30
9486;DHT22;4781;48.776;9.200;2022-08-11T01:20:02;19.90;65.40
9486;DHT22;4781;48.776;9.200;2022-08-11T01:56:43;19.00;69.30
9486;DHT22;4781;48.776;9.200;2022-08-11T01:59:40;19.20;69.50
9486;DHT22;4781;48.776;9.200;2022-08-11T02:05:17;19.20;69.70
9486;DHT22;4781;48.776;9.200;2022-08-11T02:16:58;18.80;71.90
9486;DHT22;4781;48.776;9.200;2022-08-11T02:26:29;18.50;74.40
9486;DHT22;4781;48.776;9.200;2022-08-11T02:29:21;18.40;75.70
9486;DHT22;4781;48.776;9.200;2022-08-11T02:41:01;17.80;77.70
9486;DHT22;4781;48.776;9.200;2022-08-11T02:43:45;17.80;78.30
9486;DHT22;4781;48.776;9.200;2022-08-11T02:46:30;17.70;78.30
9486;DHT22;4781;48.776;9.200;2022-08-11T02:49:10;17.60;79.10
9486;DHT22;4781;48.776;9.200;2022-08-11T02:57:50;17.40;79.70
9486;DHT22;4781;48.776;9.200;2022-08-11T03:00:25;17.40;79.80
9486;DHT22;4781;48.776;9.200;2022-08-11T03:06:01;17.30;80.50
9486;DHT22;4781;48.776;9.200;2022-08-11T03:09:12;17.30;80.60
9486;DHT22;4781;48.776;9.200;2022-08-11T03:17:48;17.30;80.30
9486;DHT22;4781;48.776;9.200;2022-08-11T03:21:06;17.20;82.00
9486;DHT22;4781;48.776;9.200;2022-08-11T03:24:10;17.00;82.80
9486;DHT22;4781;48.776;9.200;2022-08-11T03:27:02;17.00;83.80
9486;DHT22;4781;48.776;9.200;2022-08-11T03:29:46;16.90;83.00
9486;DHT22;4781;48.776;9.200;2022-08-11T03:32:29;16.90;83.40
9486;DHT22;4781;48.776;9.200;2022-08-11T03:35:16;16.80;83.70
9486;DHT22;4781;48.776;9.200;2022-08-11T03:37:59;16.80;83.80
9486;DHT22;4781;48.776;9.200;2022-08-11T03:40:42;16.80;83.90
9486;DHT22;4781;48.776;9.200;2022-08-11T03:43:58;16.70;84.00
9486;DHT22;4781;48.776;9.200;2022-08-11T03:46:35;16.70;83.30
9486;DHT22;4781;48.776;9.200;2022-08-11T03:49:35;16.70;84.00
9486;DHT22;4781;48.776;9.200;2022-08-11T03:52:10;16.60;84.30
9486;DHT22;4781;48.776;9.200;2022-08-11T03:55:13;16.50;84.60
9486;DHT22;4781;48.776;9.200;2022-08-11T04:01:01;16.40;84.80
9486;DHT22;4781;48.776;9.200;2022-08-11T04:25:05;16.20;86.80
9486;DHT22;4781;48.776;9.200;2022-08-11T04:30:52;16.20;87.60
9486;DHT22;4781;48.776;9.200;2022-08-11T04:49:04;16.20;88.70
9486;DHT22;4781;48.776;9.200;2022-08-11T04:58:59;16.30;90.10
9486;DHT22;4781;48.776;9.200;2022-08-11T05:02:19;16.40;90.00
9486;DHT22;4781;48.776;9.200;2022-08-11T05:08:27;16.60;89.60
9486;DHT22;4781;48.776;9.200;2022-08-11T05:11:29;16.70;90.40
9486;DHT22;4781;48.776;9.200;2022-08-11T05:17:10;16.80;89.30
9486;DHT22;4781;48.776;9.200;2022-08-11T05:19:59;16.90;90.20
9486;DHT22;4781;48.776;9.200;2022-08-11T05:22:34;17.00;90.00
9486;DHT22;4781;48.776;9.200;2022-08-11T05:25:28;17.20;89.60
9486;DHT22;4781;48.776;9.200;2022-08-11T05:28:33;17.20;89.90
9486;DHT22;4781;48.776;9.200;2022-08-11T05:31:24;17.30;90.00
9486;DHT22;4781;48.776;9.200;2022-08-11T05:34:16;17.40;90.40
9486;DHT22;4781;48.776;9.200;2022-08-11T05:37:10;17.50;90.10
9486;DHT22;4781;48.776;9.200;2022-08-11T05:39:45;17.60;89.40
9486;DHT22;4781;48.776;9.200;2022-08-11T05:42:41;17.60;89.20
9486;DHT22;4781;48.776;9.200;2022-08-11T05:45:25;17.70;88.50
9486;DHT22;4781;48.776;9.200;2022-08-11T05:48:12;17.80;88.10
9486;DHT22;4781;48.776;9.200;2022-08-11T05:51:00;17.90;88.90
9486;DHT22;4781;48.776;9.200;2022-08-11T05:53:50;18.00;88.70
9486;DHT22;4781;48.776;9.200;2022-08-11T05:59:30;18.30;87.20
9486;DHT22;4781;48.776;9.200;2022-08-11T06:02:04;18.50;86.30
9486;DHT22;4781;48.776;9.200;2022-08-11T06:04:34;18.60;86.40
9486;DHT22;4781;48.776;9.200;2022-08-11T06:07:11;18.80;84.80
9486;DHT22;4781;48.776;9.200;2022-08-11T06:09:46;20.00;84.60
9486;DHT22;4781;48.776;9.200;2022-08-11T06:12:25;19.50;83.10
9486;DHT22;4781;48.776;9.200;2022-08-11T06:15:10;19.40;83.00
9486;DHT22;4781;48.776;9.200;2022-08-11T06:17:43;19.40;82.30
9486;DHT22;4781;48.776;9.200;2022-08-11T06:20:14;19.50;82.50
9486;DHT22;4781;48.776;9.200;2022-08-11T06:22:46;19.60;82.10
9486;DHT22;4781;48.776;9.200;2022-08-11T06:25:17;19.70;81.20
9486;DHT22;4781;48.776;9.200;2022-08-11T06:27:45;19.70;81.10
9486;DHT22;4781;48.776;9.200;2022-08-11T06:30:14;19.80;82.50
9486;DHT22;4781;48.776;9.200;2022-08-11T06:32:45;19.90;80.10
9486;DHT22;4781;48.776;9.200;2022-08-11T06:35:20;20.00;82.00
9486;DHT22;4781;48.776;9.200;2022-08-11T06:38:14;20.20;81.90
9486;DHT22;4781;48.776;9.200;2022-08-11T06:40:52;20.40;82.30
9486;DHT22;4781;48.776;9.200;2022-08-11T06:46:50;20.60;80.50
9486;DHT22;4781;48.776;9.200;2022-08-11T06:49:30;20.80;80.10
9486;DHT22;4781;48.776;9.200;2022-08-11T06:52:13;21.00;79.40
9486;DHT22;4781;48.776;9.200;2022-08-11T06:54:52;21.10;79.00
9486;DHT22;4781;48.776;9.200;2022-08-11T06:57:22;21.30;79.40
9486;DHT22;4781;48.776;9.200;2022-08-11T07:00:10;21.40;78.40
9486;DHT22;4781;48.776;9.200;2022-08-11T07:05:47;21.50;76.80
9486;DHT22;4781;48.776;9.200;2022-08-11T07:12:02;21.80;76.80
9486;DHT22;4781;48.776;9.200;2022-08-11T07:14:54;22.00;76.50
9486;DHT22;4781;48.776;9.200;2022-08-11T07:17:48;22.10;74.70
9486;DHT22;4781;48.776;9.200;2022-08-11T07:20:18;22.30;77.10
9486;DHT22;4781;48.776;9.200;2022-08-11T07:23:06;22.50;75.10
9486;DHT22;4781;48.776;9.200;2022-08-11T07:25:53;22.60;74.40
9486;DHT22;4781;48.776;9.200;2022-08-11T07:28:44;22.80;75.60
9486;DHT22;4781;48.776;9.200;2022-08-11T07:31:30;23.00;74.90
9486;DHT22;4781;48.776;9.200;2022-08-11T07:36:39;23.20;73.90
9486;DHT22;4781;48.776;9.200;2022-08-11T07:39:14;23.30;74.20
9486;DHT22;4781;48.776;9.200;2022-08-11T07:41:45;23.50;72.90
9486;DHT22;4781;48.776;9.200;2022-08-11T07:44:16;23.70;72.00
9486;DHT22;4781;48.776;9.200;2022-08-11T07:46:47;23.60;71.40
9486;DHT22;4781;48.776;9.200;2022-08-11T07:49:36;23.60;71.10
9486;DHT22;4781;48.776;9.200;2022-08-11T07:52:26;23.70;72.40
9486;DHT22;4781;48.776;9.200;2022-08-11T07:55:01;23.80;71.60
9486;DHT22;4781;48.776;9.200;2022-08-11T07:57:32;24.00;72.60
9486;DHT22;4781;48.776;9.200;2022-08-11T08:00:18;24.20;71.60
9486;DHT22;4781;48.776;9.200;2022-08-11T08:03:05;24.50;71.60
9486;DHT22;4781;48.776;9.200;2022-08-11T08:05:53;24.60;71.30
9486;DHT22;4781;48.776;9.200;2022-08-11T08:08:40;24.80;70.00
9486;DHT22;4781;48.776;9.200;2022-08-11T08:11:27;24.70;69.10
9486;DHT22;4781;48.776;9.200;2022-08-11T08:14:15;24.90;69.50
9486;DHT22;4781;48.776;9.200;2022-08-11T08:17:02;25.00;68.70
9486;DHT22;4781;48.776;9.200;2022-08-11T08:19:49;25.20;69.00
9486;DHT22;4781;48.776;9.200;2022-08-11T08:22:19;25.50;68.30
9486;DHT22;4781;48.776;9.200;2022-08-11T08:24:48;25.60;66.80
9486;DHT22;4781;48.776;9.200;2022-08-11T08:27:18;25.70;66.10
9486;DHT22;4781;48.776;9.200;2022-08-11T08:29:48;25.70;65.10
9486;DHT22;4781;48.776;9.200;2022-08-11T08:32:31;25.70;66.50
9486;DHT22;4781;48.776;9.200;2022-08-11T08:35:02;25.90;63.60
9486;DHT22;4781;48.776;9.200;2022-08-11T08:37:31;25.70;62.90
9486;DHT22;4781;48.776;9.200;2022-08-11T08:40:00;25.60;63.00
9486;DHT22;4781;48.776;9.200;2022-08-11T08:42:30;25.80;62.90
9486;DHT22;4781;48.776;9.200;2022-08-11T08:45:08;25.80;62.80
9486;DHT22;4781;48.776;9.200;2022-08-11T08:47:45;26.00;63.80
9486;DHT22;4781;48.776;9.200;2022-08-11T08:50:15;26.50;61.40
9486;DHT22;4781;48.776;9.200;2022-08-11T08:52:56;26.70;63.10
9486;DHT22;4781;48.776;9.200;2022-08-11T08:55:28;27.00;61.60
9486;DHT22;4781;48.776;9.200;2022-08-11T08:57:58;27.20;60.70
9486;DHT22;4781;48.776;9.200;2022-08-11T09:00:38;27.40;60.10
9486;DHT22;4781;48.776;9.200;2022-08-11T09:03:08;27.10;59.50
9486;DHT22;4781;48.776;9.200;2022-08-11T09:05:37;27.20;59.40
9486;DHT22;4781;48.776;9.200;2022-08-11T09:08:07;27.30;60.40
9486;DHT22;4781;48.776;9.200;2022-08-11T09:10:37;27.80;59.60
9486;DHT22;4781;48.776;9.200;2022-08-11T09:13:05;28.00;60.00
9486;DHT22;4781;48.776;9.200;2022-08-11T09:15:34;28.20;59.60
9486;DHT22;4781;48.776;9.200;2022-08-11T09:18:03;28.30;59.50
9486;DHT22;4781;48.776;9.200;2022-08-11T09:20:38;28.40;57.50
9486;DHT22;4781;48.776;9.200;2022-08-11T09:23:07;28.20;57.70
9486;DHT22;4781;48.776;9.200;2022-08-11T09:25:56;28.40;56.30
9486;DHT22;4781;48.776;9.200;2022-08-11T09:28:44;28.50;56.40
9486;DHT22;4781;48.776;9.200;2022-08-11T09:31:15;28.40;57.00
9486;DHT22;4781;48.776;9.200;2022-08-11T09:33:45;28.80;57.90
9486;DHT22;4781;48.776;9.200;2022-08-11T09:36:13;28.60;56.50
9486;DHT22;4781;48.776;9.200;2022-08-11T09:39:00;28.40;55.70
9486;DHT22;4781;48.776;9.200;2022-08-11T09:41:48;29.00;56.90
9486;DHT22;4781;48.776;9.200;2022-08-11T09:44:17;29.20;56.40
9486;DHT22;4781;48.776;9.200;2022-08-11T09:47:04;29.20;55.90
9486;DHT22;4781;48.776;9.200;2022-08-11T09:49:36;29.20;54.80
9486;DHT22;4781;48.776;9.200;2022-08-11T09:52:06;28.20;55.20
9486;DHT22;4781;48.776;9.200;2022-08-11T09:54:35;28.60;56.00
9486;DHT22;4781;48.776;9.200;2022-08-11T09:57:04;29.10;55.40
9486;DHT22;4781;48.776;9.200;2022-08-11T09:59:52;28.60;53.60
9486;DHT22;4781;48.776;9.200;2022-08-11T10:02:28;28.50;54.00
9486;DHT22;4781;48.776;9.200;2022-08-11T10:04:57;29.10;55.20
9486;DHT22;4781;48.776;9.200;2022-08-11T10:07:28;29.70;54.30
9486;DHT22;4781;48.776;9.200;2022-08-11T10:09:58;29.80;53.60
9486;DHT22;4781;48.776;9.200;2022-08-11T10:12:34;30.10;55.20
9486;DHT22;4781;48.776;9.200;2022-08-11T10:15:08;30.00;53.00
9486;DHT22;4781;48.776;9.200;2022-08-11T10:17:59;29.30;52.40
9486;DHT22;4781;48.776;9.200;2022-08-11T10:21:03;29.70;54.00
9486;DHT22;4781;48.776;9.200;2022-08-11T10:23:46;30.00;53.50
9486;DHT22;4781;48.776;9.200;2022-08-11T10:26:32;30.30;53.60
9486;DHT22;4781;48.776;9.200;2022-08-11T10:29:22;30.50;53.60
9486;DHT22;4781;48.776;9.200;2022-08-11T10:32:08;30.60;53.20
9486;DHT22;4781;48.776;9.200;2022-08-11T10:34:55;30.70;52.90
9486;DHT22;4781;48.776;9.200;2022-08-11T10:37:24;30.00;51.00
9486;DHT22;4781;48.776;9.200;2022-08-11T10:39:55;29.10;52.50
9486;DHT22;4781;48.776;9.200;2022-08-11T10:42:24;29.40;52.60
9486;DHT22;4781;48.776;9.200;2022-08-11T10:45:10;30.20;54.00
9486;DHT22;4781;48.776;9.200;2022-08-11T10:47:56;30.40;51.30
9486;DHT22;4781;48.776;9.200;2022-08-11T10:50:26;30.50;52.00
9486;DHT22;4781;48.776;9.200;2022-08-11T10:53:13;30.30;51.70
9486;DHT22;4781;48.776;9.200;2022-08-11T10:56:01;30.60;52.00
9486;DHT22;4781;48.776;9.200;2022-08-11T10:58:48;30.90;51.40
9486;DHT22;4781;48.776;9.200;2022-08-11T11:04:01;31.10;51.80
9486;DHT22;4781;48.776;9.200;2022-08-11T11:07:03;31.00;50.90
9486;DHT22;4781;48.776;9.200;2022-08-11T11:09:41;30.20;50.70
9486;DHT22;4781;48.776;9.200;2022-08-11T11:15:23;30.10;50.40
9486;DHT22;4781;48.776;9.200;2022-08-11T11:18:33;30.40;51.30
9486;DHT22;4781;48.776;9.200;2022-08-11T11:21:06;31.00;51.20
9486;DHT22;4781;48.776;9.200;2022-08-11T11:23:42;31.10;49.60
9486;DHT22;4781;48.776;9.200;2022-08-11T11:37:48;31.10;51.00
9486;DHT22;4781;48.776;9.200;2022-08-11T11:40:19;31.40;48.90
9486;DHT22;4781;48.776;9.200;2022-08-11T11:42:51;31.30;49.50
9486;DHT22;4781;48.776;9.200;2022-08-11T11:45:22;31.20;49.50
9486;DHT22;4781;48.776;9.200;2022-08-11T11:47:53;31.60;49.80
9486;DHT22;4781;48.776;9.200;2022-08-11T11:50:31;31.10;48.10
9486;DHT22;4781;48.776;9.200;2022-08-11T11:52:57;30.70;48.50
9486;DHT22;4781;48.776;9.200;2022-08-11T11:55:28;30.40;48.30
9486;DHT22;4781;48.776;9.200;2022-08-11T11:57:59;30.60;48.60
9486;DHT22;4781;48.776;9.200;2022-08-11T12:00:46;29.80;49.40
9486;DHT22;4781;48.776;9.200;2022-08-11T12:03:34;30.80;48.60
9486;DHT22;4781;48.776;9.200;2022-08-11T12:06:04;31.20;49.00
9486;DHT22;4781;48.776;9.200;2022-08-11T12:08:36;31.50;49.20
9486;DHT22;4781;48.776;9.200;2022-08-11T12:11:08;31.50;47.90
9486;DHT22;4781;48.776;9.200;2022-08-11T12:13:57;31.60;47.10
9486;DHT22;4781;48.776;9.200;2022-08-11T12:16:27;31.30;47.20
9486;DHT22;4781;48.776;9.200;2022-08-11T12:18:58;31.20;48.50
9486;DHT22;4781;48.776;9.200;2022-08-11T12:21:28;31.50;47.90
9486;DHT22;4781;48.776;9.200;2022-08-11T12:23:59;30.80;47.70
9486;DHT22;4781;48.776;9.200;2022-08-11T12:26:45;31.10;47.10
9486;DHT22;4781;48.776;9.200;2022-08-11T12:29:16;31.20;47.30
9486;DHT22;4781;48.776;9.200;2022-08-11T12:31:46;31.40;48.10
9486;DHT22;4781;48.776;9.200;2022-08-11T12:34:16;31.60;47.60
9486;DHT22;4781;48.776;9.200;2022-08-11T12:36:58;31.50;47.70
9486;DHT22;4781;48.776;9.200;2022-08-11T12:39:36;31.70;47.80
9486;DHT22;4781;48.776;9.200;2022-08-11T12:42:22;31.90;48.00
9486;DHT22;4781;48.776;9.200;2022-08-11T12:45:11;31.80;47.00
9486;DHT22;4781;48.776;9.200;2022-08-11T12:48:04;31.90;47.90
9486;DHT22;4781;48.776;9.200;2022-08-11T12:51:05;31.70;47.40
9486;DHT22;4781;48.776;9.200;2022-08-11T12:54:01;31.80;47.20
9486;DHT22;4781;48.776;9.200;2022-08-11T12:56:49;31.80;47.80
9486;DHT22;4781;48.776;9.200;2022-08-11T12:59:38;31.80;47.30
9486;DHT22;4781;48.776;9.200;2022-08-11T13:02:25;31.70;46.60
9486;DHT22;4781;48.776;9.200;2022-08-11T13:05:13;31.40;46.30
9486;DHT22;4781;48.776;9.200;2022-08-11T13:07:43;31.20;46.50
9486;DHT22;4781;48.776;9.200;2022-08-11T13:10:15;31.40;46.50
9486;DHT22;4781;48.776;9.200;2022-08-11T13:13:04;31.50;47.10
9486;DHT22;4781;48.776;9.200;2022-08-11T13:15:35;31.30;46.50
9486;DHT22;4781;48.776;9.200;2022-08-11T13:18:04;31.30;47.00
9486;DHT22;4781;48.776;9.200;2022-08-11T13:20:35;31.40;47.00
9486;DHT22;4781;48.776;9.200;2022-08-11T13:23:05;31.60;46.70
9486;DHT22;4781;48.776;9.200;2022-08-11T13:25:33;31.20;45.90
9486;DHT22;4781;48.776;9.200;2022-08-11T13:28:02;31.00;46.20
9486;DHT22;4781;48.776;9.200;2022-08-11T13:30:31;30.90;46.10
9486;DHT22;4781;48.776;9.200;2022-08-11T13:33:18;31.00;47.40
9486;DHT22;4781;48.776;9.200;2022-08-11T13:35:49;31.40;48.20
9486;DHT22;4781;48.776;9.200;2022-08-11T13:38:21;31.40;45.90
9486;DHT22;4781;48.776;9.200;2022-08-11T13:40:52;31.20;46.30
9486;DHT22;4781;48.776;9.200;2022-08-11T13:43:22;31.20;46.30
9486;DHT22;4781;48.776;9.200;2022-08-11T13:45:52;31.50;47.50
9486;DHT22;4781;48.776;9.200;2022-08-11T13:48:23;31.50;47.10
9486;DHT22;4781;48.776;9.200;2022-08-11T13:50:51;31.70;45.80
9486;DHT22;4781;48.776;9.200;2022-08-11T13:53:38;31.50;45.70
9486;DHT22;4781;48.776;9.200;2022-08-11T13:56:06;31.40;46.50
9486;DHT22;4781;48.776;9.200;2022-08-11T13:58:35;31.30;47.00
9486;DHT22;4781;48.776;9.200;2022-08-11T14:01:05;31.50;47.10
9486;DHT22;4781;48.776;9.200;2022-08-11T14:03:34;31.40;46.00
9486;DHT22;4781;48.776;9.200;2022-08-11T14:06:03;31.50;47.00
9486;DHT22;4781;48.776;9.200;2022-08-11T14:08:34;31.50;46.40
9486;DHT22;4781;48.776;9.200;2022-08-11T14:11:06;31.40;46.40
9486;DHT22;4781;48.776;9.200;2022-08-11T14:13:53;31.50;45.50
9486;DHT22;4781;48.776;9.200;2022-08-11T14:16:30;31.10;46.00
9486;DHT22;4781;48.776;9.200;2022-08-11T14:19:01;30.50;46.10
9486;DHT22;4781;48.776;9.200;2022-08-11T14:21:34;30.70;47.80
9486;DHT22;4781;48.776;9.200;2022-08-11T14:24:22;31.10;47.10
9486;DHT22;4781;48.776;9.200;2022-08-11T14:26:52;31.30;46.20
9486;DHT22;4781;48.776;9.200;2022-08-11T14:29:24;31.20;46.80
9486;DHT22;4781;48.776;9.200;2022-08-11T14:32:01;31.20;45.70
9486;DHT22;4781;48.776;9.200;2022-08-11T14:34:29;30.70;45.70
9486;DHT22;4781;48.776;9.200;2022-08-11T14:37:06;30.70;47.20
9486;DHT22;4781;48.776;9.200;2022-08-11T14:39:34;30.90;45.40
9486;DHT22;4781;48.776;9.200;2022-08-11T14:42:06;31.00;45.40
9486;DHT22;4781;48.776;9.200;2022-08-11T14:45:05;31.10;45.60
9486;DHT22;4781;48.776;9.200;2022-08-11T14:47:55;31.10;45.10
9486;DHT22;4781;48.776;9.200;2022-08-11T14:50:30;31.00;46.40
9486;DHT22;4781;48.776;9.200;2022-08-11T14:53:01;30.90;44.90
9486;DHT22;4781;48.776;9.200;2022-08-11T14:55:40;30.80;45.20
9486;DHT22;4781;48.776;9.200;2022-08-11T14:58:28;30.80;46.60
9486;DHT22;4781;48.776;9.200;2022-08-11T15:01:00;31.00;45.80
9486;DHT22;4781;48.776;9.200;2022-08-11T15:03:32;31.10;46.20
9486;DHT22;4781;48.776;9.200;2022-08-11T15:06:01;31.20;46.10
9486;DHT22;4781;48.776;9.200;2022-08-11T15:08:32;31.40;46.10
9486;DHT22;4781;48.776;9.200;2022-08-11T15:11:27;31.20;45.20
9486;DHT22;4781;48.776;9.200;2022-08-11T15:14:11;30.90;45.00
9486;DHT22;4781;48.776;9.200;2022-08-11T15:16:43;30.70;45.30
9486;DHT22;4781;48.776;9.200;2022-08-11T15:19:31;30.90;45.20
9486;DHT22;4781;48.776;9.200;2022-08-11T15:22:00;31.20;45.40
9486;DHT22;4781;48.776;9.200;2022-08-11T15:24:46;30.90;45.90
9486;DHT22;4781;48.776;9.200;2022-08-11T15:27:18;31.00;45.70
9486;DHT22;4781;48.776;9.200;2022-08-11T15:30:05;31.00;46.30
9486;DHT22;4781;48.776;9.200;2022-08-11T15:32:53;31.10;45.90
9486;DHT22;4781;48.776;9.200;2022-08-11T15:35:40;31.10;45.20
9486;DHT22;4781;48.776;9.200;2022-08-11T15:38:28;31.00;44.30
9486;DHT22;4781;48.776;9.200;2022-08-11T15:40:59;30.90;44.40
9486;DHT22;4781;48.776;9.200;2022-08-11T15:43:48;31.00;44.80
9486;DHT22;4781;48.776;9.200;2022-08-11T15:46:46;30.80;44.60
9486;DHT22;4781;48.776;9.200;2022-08-11T15:49:28;30.60;44.80
9486;DHT22;4781;48.776;9.200;2022-08-11T15:52:05;30.50;45.80
9486;DHT22;4781;48.776;9.200;2022-08-11T15:54:33;30.50;46.10
9486;DHT22;4781;48.776;9.200;2022-08-11T15:57:05;30.50;45.70
9486;DHT22;4781;48.776;9.200;2022-08-11T15:59:35;30.60;45.60
9486;DHT22;4781;48.776;9.200;2022-08-11T16:02:23;30.60;45.30
9486;DHT22;4781;48.776;9.200;2022-08-11T16:05:12;30.30;44.60
9486;DHT22;4781;48.776;9.200;2022-08-11T16:07:44;30.30;45.60
9486;DHT22;4781;48.776;9.200;2022-08-11T16:10:18;30.20;45.50
9486;DHT22;4781;48.776;9.200;2022-08-11T16:12:59;30.10;46.30
9486;DHT22;4781;48.776;9.200;2022-08-11T16:15:39;30.10;46.40
9486;DHT22;4781;48.776;9.200;2022-08-11T16:19:05;30.10;46.20
9486;DHT22;4781;48.776;9.200;2022-08-11T16:21:31;30.10;46.60
9486;DHT22;4781;48.776;9.200;2022-08-11T16:24:00;30.00;46.20
9486;DHT22;4781;48.776;9.200;2022-08-11T16:26:32;29.50;45.40
9486;DHT22;4781;48.776;9.200;2022-08-11T16:29:02;29.60;46.90
9486;DHT22;4781;48.776;9.200;2022-08-11T16:31:31;29.50;47.40
9486;DHT22;4781;48.776;9.200;2022-08-11T16:34:02;29.50;47.70
9486;DHT22;4781;48.776;9.200;2022-08-11T16:36:33;29.50;46.70
9486;DHT22;4781;48.776;9.200;2022-08-11T16:39:19;29.40;48.00
9486;DHT22;4781;48.776;9.200;2022-08-11T16:41:48;29.30;46.60
9486;DHT22;4781;48.776;9.200;2022-08-11T16:44:35;29.20;47.80
9486;DHT22;4781;48.776;9.200;2022-08-11T16:47:22;29.20;46.90
9486;DHT22;4781;48.776;9.200;2022-08-11T16:49:53;29.00;47.50
9486;DHT22;4781;48.776;9.200;2022-08-11T16:52:23;29.00;47.70
9486;DHT22;4781;48.776;9.200;2022-08-11T16:54:51;28.90;48.20
9486;DHT22;4781;48.776;9.200;2022-08-11T16:57:23;28.80;48.70
9486;DHT22;4781;48.776;9.200;2022-08-11T17:00:11;28.80;47.40
9486;DHT22;4781;48.776;9.200;2022-08-11T17:02:54;28.70;47.70
9486;DHT22;4781;48.776;9.200;2022-08-11T17:05:41;28.50;48.00
9486;DHT22;4781;48.776;9.200;2022-08-11T17:08:39;28.50;48.00
9486;DHT22;4781;48.776;9.200;2022-08-11T17:11:30;28.30;47.10
9486;DHT22;4781;48.776;9.200;2022-08-11T17:14:30;28.30;47.20
9486;DHT22;4781;48.776;9.200;2022-08-11T17:16:58;28.20;47.30
9486;DHT22;4781;48.776;9.200;2022-08-11T17:19:30;28.10;48.10
9486;DHT22;4781;48.776;9.200;2022-08-11T17:22:00;28.10;47.70
9486;DHT22;4781;48.776;9.200;2022-08-11T17:24:47;28.00;47.20
9486;DHT22;4781;48.776;9.200;2022-08-11T17:27:18;27.90;46.90
9486;DHT22;4781;48.776;9.200;2022-08-11T17:29:53;27.80;47.20
9486;DHT22;4781;48.776;9.200;2022-08-11T17:32:30;27.70;47.00
9486;DHT22;4781;48.776;9.200;2022-08-11T17:35:19;27.70;47.40
9486;DHT22;4781;48.776;9.200;2022-08-11T17:37:53;27.60;48.10
9486;DHT22;4781;48.776;9.200;2022-08-11T17:40:44;27.50;47.80
9486;DHT22;4781;48.776;9.200;2022-08-11T17:43:36;27.40;47.60
9486;DHT22;4781;48.776;9.200;2022-08-11T17:46:23;27.40;47.30
9486;DHT22;4781;48.776;9.200;2022-08-11T17:49:11;27.30;47.50
9486;DHT22;4781;48.776;9.200;2022-08-11T17:51:43;27.20;47.90
9486;DHT22;4781;48.776;9.200;2022-08-11T17:54:30;27.10;49.30
9486;DHT22;4781;48.776;9.200;2022-08-11T17:57:20;27.00;48.60
9486;DHT22;4781;48.776;9.200;2022-08-11T18:00:08;27.00;48.80
9486;DHT22;4781;48.776;9.200;2022-08-11T18:02:39;26.80;50.20
9486;DHT22;4781;48.776;9.200;2022-08-11T18:05:30;26.70;49.50
9486;DHT22;4781;48.776;9.200;2022-08-11T18:08:05;26.70;48.70
9486;DHT22;4781;48.776;9.200;2022-08-11T18:10:55;26.70;48.40
9486;DHT22;4781;48.776;9.200;2022-08-11T18:13:43;26.70;48.90
9486;DHT22;4781;48.776;9.200;2022-08-11T18:16:29;26.60;49.10
9486;DHT22;4781;48.776;9.200;2022-08-11T18:19:15;26.50;48.50
9486;DHT22;4781;48.776;9.200;2022-08-11T18:22:12;26.50;48.90
9486;DHT22;4781;48.776;9.200;2022-08-11T18:24:57;26.30;49.70
9486;DHT22;4781;48.776;9.200;2022-08-11T18:27:47;26.20;50.00
9486;DHT22;4781;48.776;9.200;2022-08-11T18:30:38;26.10;50.50
9486;DHT22;4781;48.776;9.200;2022-08-11T18:33:27;25.90;50.90
9486;DHT22;4781;48.776;9.200;2022-08-11T18:36:20;25.70;51.70
9486;DHT22;4781;48.776;9.200;2022-08-11T18:39:08;25.40;52.30
9486;DHT22;4781;48.776;9.200;2022-08-11T18:42:00;25.20;52.50
9486;DHT22;4781;48.776;9.200;2022-08-11T18:44:47;25.20;52.10
9486;DHT22;4781;48.776;9.200;2022-08-11T18:47:36;25.20;53.00
9486;DHT22;4781;48.776;9.200;2022-08-11T18:50:24;25.10;52.80
9486;DHT22;4781;48.776;9.200;2022-08-11T18:53:12;24.90;52.50
9486;DHT22;4781;48.776;9.200;2022-08-11T18:55:59;24.80;53.20
9486;DHT22;4781;48.776;9.200;2022-08-11T18:58:47;24.70;52.90
9486;DHT22;4781;48.776;9.200;2022-08-11T19:01:36;24.60;52.80
9486;DHT22;4781;48.776;9.200;2022-08-11T19:04:23;24.60;53.40
9486;DHT22;4781;48.776;9.200;2022-08-11T19:07:11;24.50;53.10
9486;DHT22;4781;48.776;9.200;2022-08-11T19:09:58;24.30;52.90
9486;DHT22;4781;48.776;9.200;2022-08-11T19:12:45;24.20;53.80
9486;DHT22;4781;48.776;9.200;2022-08-11T19:15:31;24.00;53.80
9486;DHT22;4781;48.776;9.200;2022-08-11T19:18:20;24.00;54.00
9486;DHT22;4781;48.776;9.200;2022-08-11T19:21:07;24.00;52.90
9486;DHT22;4781;48.776;9.200;2022-08-11T19:23:56;24.10;54.20
9486;DHT22;4781;48.776;9.200;2022-08-11T19:26:45;24.20;53.00
9486;DHT22;4781;48.776;9.200;2022-08-11T19:29:34;24.00;53.80
9486;DHT22;4781;48.776;9.200;2022-08-11T19:32:21;23.80;53.90
9486;DHT22;4781;48.776;9.200;2022-08-11T19:35:09;23.80;53.70
9486;DHT22;4781;48.776;9.200;2022-08-11T19:37:56;23.70;53.90
9486;DHT22;4781;48.776;9.200;2022-08-11T19:40:44;23.60;53.80
9486;DHT22;4781;48.776;9.200;2022-08-11T19:43:32;23.50;54.10
9486;DHT22;4781;48.776;9.200;2022-08-11T19:46:20;23.40;54.50
9486;DHT22;4781;48.776;9.200;2022-08-11T19:49:08;23.40;54.80
9486;DHT22;4781;48.776;9.200;2022-08-11T19:51:56;23.20;54.60
9486;DHT22;4781;48.776;9.200;2022-08-11T19:54:44;23.10;54.40
9486;DHT22;4781;48.776;9.200;2022-08-11T19:57:32;23.10;54.20
9486;DHT22;4781;48.776;9.200;2022-08-11T20:00:20;23.10;54.30
9486;DHT22;4781;48.776;9.200;2022-08-11T20:03:09;23.20;54.30
9486;DHT22;4781;48.776;9.200;2022-08-11T20:05:59;23.20;54.30
9486;DHT22;4781;48.776;9.200;2022-08-11T20:08:48;23.10;54.00
9486;DHT22;4781;48.776;9.200;2022-08-11T20:11:38;23.00;54.70
9486;DHT22;4781;48.776;9.200;2022-08-11T20:14:28;22.90;54.30
9486;DHT22;4781;48.776;9.200;2022-08-11T20:17:15;22.80;54.60
9486;DHT22;4781;48.776;9.200;2022-08-11T20:20:04;22.80;54.30
9486;DHT22;4781;48.776;9.200;2022-08-11T20:22:52;22.70;54.30
9486;DHT22;4781;48.776;9.200;2022-08-11T20:25:40;22.80;54.50
9486;DHT22;4781;48.776;9.200;2022-08-11T20:28:26;22.60;55.00
9486;DHT22;4781;48.776;9.200;2022-08-11T20:31:14;22.50;54.80
9486;DHT22;4781;48.776;9.200;2022-08-11T20:34:01;22.30;55.60